Time;durP1;ratioP1;P1;durP2;ratioP2;P2;SDS_P1;SDS_P2;PMS_P1;PMS_P2;Temp;Humidity;BMP_temperature;BMP_pressure;BME280_temperature;BME280_humidity;BME280_pressure;Samples;Min_cycle;Max_cycle;Signal;HPM_P1;HPM_P2
2022/05/05 00:01:44;;;;;;;7.70;4.90;;;14.70;99.90;;;;;;5053179;28;20398;-81
2022/05/05 00:04:11;;;;;;;6.35;5.03;;;14.50;99.90;;;;;;5052685;28;20759;-82
2022/05/05 00:06:37;;;;;;;5.93;4.90;;;14.40;99.90;;;;;;5033954;28;20419;-82
2022/05/05 00:09:03;;;;;;;6.03;4.90;;;14.30;99.90;;;;;;5051158;28;20388;-81
2022/05/05 00:14:31;;;;;;;6.73;5.50;;;14.30;99.90;;;;;;5054051;28;20377;-81
2022/05/05 00:17:04;;;;;;;7.07;5.60;;;14.20;99.90;;;;;;5036729;28;20449;-80
2022/05/05 00:19:32;;;;;;;8.77;5.53;;;14.10;99.90;;;;;;5055382;28;20857;-81
2022/05/05 00:21:58;;;;;;;10.35;5.97;;;14.00;99.90;;;;;;5054175;28;20411;-81
2022/05/05 00:24:24;;;;;;;7.85;5.43;;;14.00;99.90;;;;;;5054220;28;20400;-82
2022/05/05 00:26:50;;;;;;;11.30;5.72;;;13.90;99.90;;;;;;5053676;28;20384;-82
2022/05/05 00:29:16;;;;;;;10.25;6.10;;;13.90;99.90;;;;;;5054503;28;20429;-80
2022/05/05 00:31:43;;;;;;;10.27;5.47;;;13.90;99.90;;;;;;5035947;28;20372;-82
2022/05/05 00:34:08;;;;;;;12.20;5.97;;;13.80;99.90;;;;;;5053119;28;20387;-80
2022/05/05 00:36:35;;;;;;;10.27;6.13;;;13.80;99.90;;;;;;5051914;28;20407;-79
2022/05/05 00:39:01;;;;;;;8.10;5.95;;;13.80;99.90;;;;;;5065631;28;20364;-81
2022/05/05 00:41:26;;;;;;;11.10;6.03;;;13.80;99.90;;;;;;5062503;28;20384;-81
2022/05/05 00:43:52;;;;;;;8.63;5.93;;;13.80;99.90;;;;;;5063686;28;20471;-81
2022/05/05 00:46:18;;;;;;;10.43;6.43;;;13.80;99.90;;;;;;5061585;28;20363;-80
2022/05/05 00:48:44;;;;;;;13.63;6.25;;;13.70;99.90;;;;;;5047667;28;20410;-83
2022/05/05 00:51:10;;;;;;;12.25;6.85;;;14.20;99.90;;;;;;5048317;28;20834;-80
2022/05/05 00:53:36;;;;;;;10.73;7.03;;;13.60;99.90;;;;;;5046198;28;20433;-82
2022/05/05 00:56:15;;;;;;;11.50;6.55;;;13.40;99.90;;;;;;5066242;28;20421;-81
2022/05/05 00:58:43;;;;;;;9.60;6.25;;;13.30;99.90;;;;;;5049397;28;20411;-80
2022/05/05 01:01:09;;;;;;;9.95;6.40;;;13.30;99.90;;;;;;5050083;28;20376;-83
2022/05/05 01:03:36;;;;;;;9.02;6.53;;;13.30;99.90;;;;;;5049192;28;20461;-81
2022/05/05 01:06:03;;;;;;;11.05;6.78;;;13.20;99.90;;;;;;5049666;28;20390;-80
2022/05/05 01:08:29;;;;;;;9.90;6.57;;;13.30;99.90;;;;;;5049847;28;20372;-82
2022/05/05 01:10:54;;;;;;;9.32;6.45;;;13.20;99.90;;;;;;5045915;28;20402;-80
2022/05/05 01:13:20;;;;;;;12.87;7.07;;;13.20;99.90;;;;;;5063962;28;20896;-80
2022/05/05 01:15:46;;;;;;;12.18;6.45;;;13.30;99.90;;;;;;5064684;28;20391;-80
2022/05/05 01:18:12;;;;;;;12.88;7.03;;;13.20;99.90;;;;;;5047976;28;20383;-81
2022/05/05 01:20:46;;;;;;;11.35;6.88;;;13.20;99.90;;;;;;5046539;28;20427;-81
2022/05/05 01:23:15;;;;;;;9.27;6.43;;;13.20;99.90;;;;;;5047077;28;20387;-82
2022/05/05 01:28:25;;;;;;;9.10;7.10;;;13.10;99.90;;;;;;5047574;28;20369;-80
2022/05/05 01:30:51;;;;;;;11.05;7.05;;;13.10;99.90;;;;;;5047567;28;20395;-81
2022/05/05 01:33:19;;;;;;;11.80;7.03;;;13.00;99.90;;;;;;5048473;28;20414;-81
2022/05/05 01:35:46;;;;;;;12.20;7.37;;;12.90;99.90;;;;;;5058759;28;20572;-81
2022/05/05 01:38:14;;;;;;;10.63;7.25;;;12.80;99.90;;;;;;5054428;28;20780;-82
2022/05/05 01:40:48;;;;;;;11.98;6.78;;;12.80;99.90;;;;;;5035312;28;20387;-83
2022/05/05 01:43:15;;;;;;;12.52;8.25;;;;;;;;;;5034164;28;20368;-82
2022/05/05 01:45:41;;;;;;;12.80;8.05;;;12.70;99.90;;;;;;5052047;28;20454;-81
2022/05/05 01:48:07;;;;;;;13.70;8.50;;;12.80;99.90;;;;;;5052191;28;20872;-81
2022/05/05 01:50:35;;;;;;;14.05;8.32;;;;;;;;;;5052391;28;20387;-81
2022/05/05 01:53:02;;;;;;;14.80;7.78;;;;;;;;;;5053347;28;20447;-80
2022/05/05 01:55:30;;;;;;;12.60;8.45;;;;;;;;;;5033115;28;20820;-80
2022/05/05 01:57:56;;;;;;;13.73;8.13;;;;;;;;;;5051405;28;20376;-80
2022/05/05 02:00:22;;;;;;;12.20;7.88;;;;;;;;;;5051872;28;20475;-81
2022/05/05 02:02:48;;;;;;;10.70;8.10;;;;;;;;;;5052308;28;20368;-82
2022/05/05 02:05:14;;;;;;;12.23;8.07;;;;;;;;;;5054044;28;20423;-80
2022/05/05 02:07:41;;;;;;;12.30;8.35;;;;;;;;;;5054793;28;20375;-81
2022/05/05 02:10:07;;;;;;;13.05;8.25;;;;;;;;;;5034329;28;20399;-82
2022/05/05 02:12:36;;;;;;;10.05;8.02;;;;;;;;;;5033506;28;20484;-81
2022/05/05 02:15:03;;;;;;;11.88;8.18;;;;;;;;;;5034305;28;20419;-81
2022/05/05 02:17:29;;;;;;;15.48;9.00;;;;;;;;;;5051112;28;20391;-80
2022/05/05 02:19:55;;;;;;;12.23;8.00;;;;;;;;;;5032798;28;20431;-80
2022/05/05 02:22:21;;;;;;;10.10;8.07;;;;;;;;;;5051907;28;20371;-80
2022/05/05 02:24:47;;;;;;;12.30;8.20;;;;;;;;;;5051208;28;20418;-81
2022/05/05 02:27:13;;;;;;;14.27;7.97;;;;;;;;;;5051074;28;20380;-80
2022/05/05 02:29:42;;;;;;;11.82;7.53;;;;;;;;;;5032994;28;20376;-81
2022/05/05 02:32:08;;;;;;;12.88;8.10;;;;;;;;;;5033618;28;20441;-80
2022/05/05 02:34:34;;;;;;;14.20;8.27;;;;;;;;;;5032323;28;20391;-81
2022/05/05 02:39:44;;;;;;;15.35;8.35;;;;;;;;;;5037333;28;20363;-81
2022/05/05 02:42:10;;;;;;;12.43;8.35;;;;;;;;;;5051115;28;20452;-81
2022/05/05 02:44:37;;;;;;;12.73;7.72;;;;;;;;;;5050336;28;20441;-81
2022/05/05 02:47:04;;;;;;;12.45;8.35;;;;;;;;;;5050549;28;20462;-82
2022/05/05 02:49:30;;;;;;;14.38;8.95;;;;;;;;;;5051303;28;20368;-83
2022/05/05 02:51:56;;;;;;;10.63;8.13;;;;;;;;;;5033174;28;20754;-82
2022/05/05 02:57:06;;;;;;;13.52;8.18;;;;;;;;;;5051141;28;20874;-82
2022/05/05 02:59:32;;;;;;;13.38;9.23;;;;;;;;;;5032417;28;20371;-81
2022/05/05 03:01:58;;;;;;;12.25;8.63;;;;;;;;;;5033368;28;20723;-82
2022/05/05 03:04:24;;;;;;;11.85;8.77;;;;;;;;;;5031874;28;20415;-81
2022/05/05 03:06:50;;;;;;;11.77;8.75;;;;;;;;;;5032440;28;20944;-82
2022/05/05 03:09:18;;;;;;;11.88;8.88;;;;;;;;;;5050089;28;20384;-82
2022/05/05 03:11:44;;;;;;;9.90;8.90;;;;;;;;;;5050365;28;20866;-82
2022/05/05 03:14:10;;;;;;;11.98;8.85;;;;;;;;;;5050117;28;20470;-82
2022/05/05 03:16:36;;;;;;;12.80;9.18;;;;;;;;;;5032641;28;20962;-82
2022/05/05 03:19:02;;;;;;;9.88;8.68;;;;;;;;;;5031751;28;20427;-82
2022/05/05 03:21:28;;;;;;;11.82;8.60;;;;;;;;;;5032329;28;20786;-82
2022/05/05 03:23:54;;;;;;;12.55;9.07;;;;;;;;;;5032311;28;20380;-82
2022/05/05 03:26:20;;;;;;;11.02;8.73;;;;;;;;;;5032529;28;20371;-83
2022/05/05 03:28:46;;;;;;;11.45;8.88;;;;;;;;;;5033017;28;20441;-81
2022/05/05 03:31:12;;;;;;;13.70;9.77;;;;;;;;;;5051421;28;20367;-81
2022/05/05 03:33:38;;;;;;;13.02;9.20;;;;;;;;;;5033035;28;20371;-81
2022/05/05 03:36:04;;;;;;;11.48;9.23;;;;;;;;;;5033612;28;20461;-81
2022/05/05 03:38:32;;;;;;;12.27;9.47;;;;;;;;;;5050680;28;20911;-81
2022/05/05 03:40:58;;;;;;;13.07;10.82;;;;;;;;;;5051219;28;20869;-82
2022/05/05 03:43:23;;;;;;;12.95;9.68;;;;;;;;;;5051839;28;20380;-82
2022/05/05 03:45:49;;;;;;;12.68;10.13;;;;;;;;;;5037001;28;20399;-81
2022/05/05 03:48:15;;;;;;;16.33;10.60;;;;;;;;;;5056316;28;20383;-82
2022/05/05 03:50:41;;;;;;;15.83;12.33;;;;;;;;;;5054852;28;20386;-82
2022/05/05 03:53:07;;;;;;;15.63;11.40;;;;;;;;;;5054150;28;20881;-81
2022/05/05 03:55:33;;;;;;;16.23;12.00;;;;;;;;;;5053719;28;20399;-82
2022/05/05 03:57:59;;;;;;;14.67;11.47;;;;;;;;;;5053618;28;20761;-82
2022/05/05 04:00:25;;;;;;;16.90;12.68;;;;;;;;;;5054423;28;20368;-82
2022/05/05 04:05:36;;;;;;;17.75;14.50;;;;;;;;;;5033377;28;20380;-81
2022/05/05 04:08:03;;;;;;;16.58;14.10;;;;;;;;;;5038524;28;20475;-82
2022/05/05 04:10:29;;;;;;;18.52;14.68;;;;;;;;;;5053139;28;20421;-81
2022/05/05 04:12:55;;;;;;;18.85;15.52;;;12.40;99.90;;;;;;5053035;28;20395;-82
2022/05/05 04:15:21;;;;;;;19.73;16.02;;;12.50;99.90;;;;;;5052881;28;20865;-81
2022/05/05 04:17:47;;;;;;;20.35;15.88;;;;;;;;;;5053225;28;20398;-81
2022/05/05 04:20:13;;;;;;;21.85;16.67;;;11.90;99.90;;;;;;5053234;28;20417;-81
2022/05/05 04:22:38;;;;;;;20.83;16.33;;;11.90;99.90;;;;;;5052721;28;20384;-82
2022/05/05 04:25:05;;;;;;;19.63;17.53;;;11.90;99.90;;;;;;5053235;28;20378;-82
2022/05/05 04:27:31;;;;;;;19.15;17.10;;;11.80;99.90;;;;;;5052646;28;20376;-81
2022/05/05 04:29:57;;;;;;;21.13;17.33;;;11.70;99.90;;;;;;5035343;28;20434;-82
2022/05/05 04:32:22;;;;;;;17.63;15.63;;;11.70;99.90;;;;;;5052862;28;20893;-81
2022/05/05 04:34:48;;;;;;;20.47;16.40;;;11.90;99.90;;;;;;5052692;28;20380;-81
2022/05/05 04:37:14;;;;;;;19.63;16.50;;;11.70;99.90;;;;;;5035757;28;20372;-81
2022/05/05 04:39:42;;;;;;;22.58;16.70;;;11.90;99.90;;;;;;5034569;28;20414;-81
2022/05/05 04:42:08;;;;;;;19.48;16.55;;;11.90;99.90;;;;;;5035139;28;20425;-81
2022/05/05 04:44:34;;;;;;;19.30;16.30;;;11.70;99.90;;;;;;5035069;28;20415;-80
2022/05/05 04:47:01;;;;;;;18.93;16.10;;;11.90;99.90;;;;;;5037033;28;20403;-81
2022/05/05 04:49:31;;;;;;;20.00;16.13;;;12.00;99.90;;;;;;5039444;28;20372;-80
2022/05/05 04:51:56;;;;;;;19.40;16.98;;;12.10;99.90;;;;;;5055031;28;20396;-81
2022/05/05 04:54:22;;;;;;;20.83;16.63;;;12.00;99.90;;;;;;5038414;28;20372;-81
2022/05/05 04:56:48;;;;;;;18.88;16.25;;;12.10;99.90;;;;;;5055097;28;20426;-81
2022/05/05 04:59:14;;;;;;;20.37;16.53;;;11.90;99.90;;;;;;5037592;28;20380;-80
2022/05/05 05:01:39;;;;;;;21.80;17.00;;;11.80;99.90;;;;;;5037742;28;20462;-80
2022/05/05 05:04:06;;;;;;;20.60;17.17;;;11.70;99.90;;;;;;5034464;28;20375;-80
2022/05/05 05:06:32;;;;;;;21.15;18.30;;;11.50;99.90;;;;;;5052428;28;20403;-80
2022/05/05 05:08:58;;;;;;;26.23;18.52;;;11.60;99.90;;;;;;5052890;28;20375;-80
2022/05/05 05:11:24;;;;;;;24.42;17.92;;;11.70;99.90;;;;;;5052484;28;20392;-80
2022/05/05 05:13:50;;;;;;;20.48;17.38;;;11.70;99.90;;;;;;5034903;28;20892;-81
2022/05/05 05:16:15;;;;;;;20.47;16.83;;;11.80;99.90;;;;;;5034263;28;20474;-81
2022/05/05 05:18:41;;;;;;;23.20;17.43;;;11.60;99.90;;;;;;5036183;28;20376;-83
2022/05/05 05:21:07;;;;;;;22.67;16.73;;;11.70;99.90;;;;;;5054065;28;20407;-83
2022/05/05 05:23:32;;;;;;;17.70;15.83;;;11.70;99.90;;;;;;5034785;28;20881;-81
2022/05/05 05:25:58;;;;;;;18.40;16.27;;;11.80;99.90;;;;;;5053070;28;20466;-82
2022/05/05 05:28:24;;;;;;;19.42;15.65;;;12.00;99.90;;;;;;5036280;28;20730;-81
2022/05/05 05:30:50;;;;;;;19.42;15.20;;;11.90;99.90;;;;;;5035055;28;20391;-81
2022/05/05 05:33:16;;;;;;;18.50;14.50;;;12.00;99.90;;;;;;5052872;28;20391;-80
2022/05/05 05:35:44;;;;;;;16.98;14.18;;;12.20;99.90;;;;;;5051950;28;20400;-82
2022/05/05 05:38:10;;;;;;;18.70;15.27;;;12.40;99.90;;;;;;5051570;28;20388;-82
2022/05/05 05:40:36;;;;;;;21.30;16.65;;;12.30;99.90;;;;;;5051435;28;20378;-82
2022/05/05 05:43:02;;;;;;;20.47;17.47;;;12.50;99.90;;;;;;5051728;28;20758;-82
2022/05/05 05:45:27;;;;;;;25.47;20.90;;;12.60;99.90;;;;;;5051420;28;20384;-82
2022/05/05 05:47:53;;;;;;;19.80;15.90;;;12.50;99.90;;;;;;5051753;28;20865;-83
2022/05/05 05:50:19;;;;;;;15.33;13.47;;;12.70;99.90;;;;;;5033269;28;20363;-82
2022/05/05 05:52:45;;;;;;;14.48;12.52;;;12.90;99.90;;;;;;5052014;28;20368;-82
2022/05/05 05:55:10;;;;;;;15.60;12.00;;;13.00;99.90;;;;;;5051351;28;20453;-82
2022/05/05 05:57:36;;;;;;;13.65;12.25;;;13.10;99.90;;;;;;5051336;28;20372;-82
2022/05/05 06:00:02;;;;;;;13.20;11.57;;;13.10;99.90;;;;;;5050943;28;20423;-82
2022/05/05 06:05:12;;;;;;;14.00;11.45;;;13.40;99.90;;;;;;5051043;28;20430;-81
2022/05/05 06:07:38;;;;;;;16.65;12.52;;;13.30;99.90;;;;;;5033196;28;20754;-81
2022/05/05 06:10:04;;;;;;;14.00;11.00;;;13.30;99.90;;;;;;5050988;28;20383;-82
2022/05/05 06:12:30;;;;;;;13.73;11.43;;;13.40;99.90;;;;;;5050972;28;20869;-82
2022/05/05 06:14:55;;;;;;;14.25;10.10;;;13.60;99.90;;;;;;5051126;28;21116;-82
2022/05/05 06:17:21;;;;;;;15.50;10.95;;;13.80;99.90;;;;;;5051938;28;20372;-82
2022/05/05 06:19:46;;;;;;;13.83;10.40;;;13.80;99.90;;;;;;5050579;28;20375;-82
2022/05/05 06:22:12;;;;;;;13.88;10.20;;;13.60;99.90;;;;;;5033624;28;20395;-83
2022/05/05 06:24:39;;;;;;;12.10;9.40;;;13.60;99.90;;;;;;5051863;28;20849;-82
2022/05/05 06:27:05;;;;;;;15.50;10.13;;;13.90;99.90;;;;;;5051779;28;20967;-83
2022/05/05 06:29:30;;;;;;;14.38;9.13;;;13.90;99.90;;;;;;5051442;28;20411;-82
2022/05/05 06:31:56;;;;;;;12.97;8.90;;;14.10;99.90;;;;;;5050835;28;20382;-81
2022/05/05 06:34:22;;;;;;;13.07;9.07;;;14.50;99.90;;;;;;5033455;28;20889;-82
2022/05/05 06:36:47;;;;;;;15.98;9.32;;;14.30;99.90;;;;;;5051207;28;20400;-82
2022/05/05 06:39:13;;;;;;;13.50;8.43;;;14.10;99.90;;;;;;5051522;28;20407;-82
2022/05/05 06:41:39;;;;;;;15.60;9.25;;;13.90;99.90;;;;;;5033659;28;20790;-81
2022/05/05 06:44:04;;;;;;;13.02;8.25;;;14.00;99.90;;;;;;5051160;28;20391;-82
2022/05/05 06:46:30;;;;;;;10.83;8.00;;;14.00;99.90;;;;;;5034364;28;20896;-82
2022/05/05 06:48:56;;;;;;;10.80;7.90;;;14.00;99.90;;;;;;5034987;28;20392;-83
2022/05/05 06:51:22;;;;;;;12.00;8.13;;;14.00;99.90;;;;;;5052217;28;20754;-81
2022/05/05 06:53:47;;;;;;;12.35;7.82;;;14.10;99.90;;;;;;5051976;28;20471;-83
2022/05/05 06:56:13;;;;;;;12.67;8.43;;;14.10;99.90;;;;;;5036075;28;20962;-82
2022/05/05 06:58:39;;;;;;;15.00;8.07;;;14.00;99.90;;;;;;5034100;28;20368;-81
2022/05/05 07:05:23;;;;;;;13.20;8.03;;;14.20;99.90;;;;;;5051969;28;20383;-83
2022/05/05 07:06:34;;;;;;;14.00;8.55;;;14.10;99.90;;;;;;5052072;28;20437;-81
2022/05/05 07:11:44;;;;;;;11.77;7.10;;;14.20;99.90;;;;;;5050778;28;20386;-83
2022/05/05 07:14:09;;;;;;;12.67;7.27;;;14.80;99.90;;;;;;5050349;28;20415;-82
2022/05/05 07:16:35;;;;;;;12.30;7.15;;;;;;;;;;5032585;28;20402;-81
2022/05/05 07:19:01;;;;;;;9.82;7.00;;;14.90;99.90;;;;;;5048983;28;20791;-80
2022/05/05 07:21:26;;;;;;;14.03;7.17;;;15.30;99.90;;;;;;5050875;28;20372;-82
2022/05/05 07:23:52;;;;;;;10.98;6.72;;;15.40;99.90;;;;;;5032034;28;20892;-81
2022/05/05 07:26:18;;;;;;;11.30;7.27;;;15.50;99.90;;;;;;5050141;28;20746;-81
2022/05/05 07:28:43;;;;;;;12.70;7.85;;;15.10;99.90;;;;;;5049386;28;20498;-83
2022/05/05 07:31:09;;;;;;;12.10;6.67;;;15.00;99.90;;;;;;5050147;28;20380;-83
2022/05/05 07:33:35;;;;;;;13.32;6.95;;;15.10;99.90;;;;;;5048989;28;20946;-81
2022/05/05 07:36:01;;;;;;;13.55;7.10;;;15.20;99.90;;;;;;5049778;28;20395;-82
2022/05/05 07:38:26;;;;;;;9.65;6.95;;;15.30;99.90;;;;;;5031968;28;20749;-83
2022/05/05 07:40:52;;;;;;;10.07;6.63;;;15.40;99.90;;;;;;5031989;28;20379;-83
2022/05/05 07:43:19;;;;;;;13.05;6.85;;;15.70;99.90;;;;;;5049363;28;20391;-83
2022/05/05 07:45:45;;;;;;;11.50;7.10;;;15.90;99.90;;;;;;5031780;28;20379;-83
2022/05/05 07:48:11;;;;;;;11.27;6.88;;;16.00;99.90;;;;;;5031567;28;20833;-83
2022/05/05 07:50:36;;;;;;;11.07;6.10;;;16.00;99.90;;;;;;5031994;28;20380;-81
2022/05/05 07:53:03;;;;;;;11.80;6.93;;;16.00;99.90;;;;;;5032461;28;20390;-82
2022/05/05 07:55:28;;;;;;;10.50;6.93;;;16.10;99.90;;;;;;5032197;28;20944;-82
2022/05/05 07:57:54;;;;;;;14.10;7.68;;;15.90;99.90;;;;;;5044719;28;20458;-83
2022/05/05 08:00:21;;;;;;;13.10;6.80;;;15.90;99.90;;;;;;5039871;28;20377;-82
2022/05/05 08:02:47;;;;;;;11.48;7.35;;;16.00;99.90;;;;;;5035061;28;20384;-82
2022/05/05 08:05:12;;;;;;;10.80;7.20;;;16.10;99.90;;;;;;5031280;28;20386;-81
2022/05/05 08:07:46;;;;;;;10.30;6.90;;;16.10;99.90;;;;;;5049362;28;20391;-81
2022/05/05 08:10:11;;;;;;;12.02;7.07;;;16.30;99.90;;;;;;5049852;28;20368;-83
2022/05/05 08:12:37;;;;;;;14.03;7.23;;;16.50;99.90;;;;;;5031476;28;20399;-83
2022/05/05 08:15:05;;;;;;;9.80;6.95;;;;;;;;;;5030533;28;20434;-82
2022/05/05 08:17:33;;;;;;;13.10;7.10;;;17.00;99.90;;;;;;5031591;28;20374;-81
2022/05/05 08:19:59;;;;;;;12.02;7.55;;;17.00;99.90;;;;;;5049642;28;20383;-81
2022/05/05 08:22:25;;;;;;;9.95;6.70;;;16.90;99.90;;;;;;5048541;28;20938;-81
2022/05/05 08:30:19;;;;;;;11.65;7.18;;;17.20;99.90;;;;;;5043022;28;20390;-81
2022/05/05 08:32:45;;;;;;;10.18;7.03;;;;;;;;;;5022375;28;20389;-82
2022/05/05 08:35:11;;;;;;;11.55;6.80;;;;;;;;;;5021734;28;20385;-81
2022/05/05 08:37:37;;;;;;;9.93;6.50;;;;;;;;;;5027070;28;20392;-80
2022/05/05 08:40:03;;;;;;;11.63;6.97;;;;;;;;;;5039804;28;20366;-81
2022/05/05 08:42:30;;;;;;;11.15;7.00;;;;;;;;;;5041406;28;20379;-87
2022/05/05 08:44:59;;;;;;;11.07;7.47;;;;;;;;;;5055737;28;20435;-84
2022/05/05 08:47:26;;;;;;;11.48;7.72;;;;;;;;;;5026181;28;20401;-81
2022/05/05 08:49:58;;;;;;;10.50;7.47;;;16.80;99.90;;;;;;5025378;28;20412;-82
2022/05/05 08:52:26;;;;;;;12.23;7.25;;;16.80;99.90;;;;;;5036311;28;20397;-82
2022/05/05 08:54:51;;;;;;;10.93;7.07;;;16.80;99.90;;;;;;5022547;28;20381;-82
2022/05/05 08:57:17;;;;;;;9.60;6.60;;;17.00;99.90;;;;;;5044166;28;20413;-81
2022/05/05 08:59:43;;;;;;;11.77;7.60;;;16.50;99.90;;;;;;5027455;28;20380;-81
2022/05/05 09:02:10;;;;;;;11.40;7.05;;;16.30;99.90;;;;;;5045297;28;20905;-81
2022/05/05 09:04:36;;;;;;;9.57;6.28;;;16.20;99.90;;;;;;5027452;28;20654;-81
2022/05/05 09:07:02;;;;;;;14.45;7.97;;;16.40;99.90;;;;;;5040250;28;20385;-81
2022/05/05 09:09:33;;;;;;;9.52;6.60;;;16.70;99.90;;;;;;5033209;28;20422;-81
2022/05/05 09:12:04;;;;;;;11.30;6.77;;;17.20;99.90;;;;;;5010116;28;20890;-81
2022/05/05 09:14:45;;;;;;;11.77;6.68;;;18.20;99.90;;;;;;5016740;28;20437;-84
2022/05/05 09:17:16;;;;;;;12.02;7.10;;;18.20;99.90;;;;;;5030744;28;20395;-82
2022/05/05 09:19:45;;;;;;;9.55;6.82;;;18.20;99.90;;;;;;5032080;28;20373;-82
2022/05/05 09:22:12;;;;;;;12.77;6.57;;;17.70;99.90;;;;;;5034860;28;20375;-81
2022/05/05 09:24:43;;;;;;;11.25;6.65;;;17.20;99.90;;;;;;5020282;28;20477;-81
2022/05/05 09:27:15;;;;;;;12.70;6.67;;;17.00;99.90;;;;;;5047829;28;20385;-81
2022/05/05 09:29:41;;;;;;;10.38;6.43;;;17.20;99.90;;;;;;5030420;28;20395;-81
2022/05/05 09:32:11;;;;;;;12.95;7.28;;;17.20;99.90;;;;;;5052923;28;20726;-81
2022/05/05 09:34:38;;;;;;;9.75;6.70;;;17.20;99.90;;;;;;5035010;28;20993;-82
2022/05/05 09:37:20;;;;;;;10.65;6.63;;;16.90;99.90;;;;;;5026660;28;20408;-81
2022/05/05 09:39:46;;;;;;;9.10;6.45;;;17.10;99.90;;;;;;5027776;28;20652;-81
2022/05/05 09:42:32;;;;;;;10.40;6.32;;;17.40;99.90;;;;;;5034023;28;20380;-82
2022/05/05 09:45:10;;;;;;;12.23;7.05;;;17.60;99.90;;;;;;5037626;28;20539;-81
2022/05/05 09:47:37;;;;;;;9.80;6.50;;;17.40;99.90;;;;;;5021111;28;20723;-82
2022/05/05 09:50:04;;;;;;;11.43;6.45;;;17.00;99.90;;;;;;5038795;28;20464;-84
2022/05/05 09:58:10;;;;;;;8.55;5.57;;;17.10;99.90;;;;;;5045673;28;20888;-82
2022/05/05 10:00:44;;;;;;;13.57;6.40;;;17.50;99.90;;;;;;5024854;28;20502;-82
2022/05/05 10:06:27;;;;;;;9.10;6.13;;;18.10;99.90;;;;;;5041688;28;20587;-81
2022/05/05 10:08:56;;;;;;;11.43;6.32;;;18.30;99.90;;;;;;5023411;28;20748;-80
2022/05/05 10:11:22;;;;;;;9.10;5.88;;;18.20;99.90;;;;;;5023212;28;20891;-81
2022/05/05 10:13:49;;;;;;;9.75;5.75;;;18.00;99.90;;;;;;5043318;28;20882;-81
2022/05/05 10:16:16;;;;;;;11.45;5.78;;;17.90;99.90;;;;;;5024227;28;20484;-80
2022/05/05 10:18:42;;;;;;;9.03;6.30;;;18.20;99.90;;;;;;5042423;28;20464;-83
2022/05/05 10:21:30;;;;;;;11.95;5.72;;;18.20;99.90;;;;;;5037988;28;20377;-81
2022/05/05 10:24:08;;;;;;;8.75;5.95;;;18.10;98.70;;;;;;5047768;28;20392;-80
2022/05/05 10:26:33;;;;;;;11.25;5.68;;;18.10;99.90;;;;;;5033513;28;21210;-82
2022/05/05 10:28:59;;;;;;;12.13;6.03;;;18.50;99.90;;;;;;5039777;28;20465;-82
2022/05/05 10:31:31;;;;;;;9.73;5.57;;;18.50;99.90;;;;;;5043736;28;20367;-83
2022/05/05 10:34:06;;;;;;;10.88;5.93;;;18.30;99.10;;;;;;5026007;28;20382;-81
2022/05/05 10:36:36;;;;;;;10.90;6.75;;;18.50;97.60;;;;;;5043124;28;20397;-82
2022/05/05 10:39:18;;;;;;;9.70;6.25;;;18.80;97.10;;;;;;5048660;28;20465;-82
2022/05/05 10:41:44;;;;;;;11.25;6.28;;;19.00;97.70;;;;;;5044253;28;20373;-79
2022/05/05 10:44:20;;;;;;;9.80;6.13;;;19.40;97.80;;;;;;5030656;28;20734;-80
2022/05/05 10:47:03;;;;;;;10.10;6.35;;;20.20;96.00;;;;;;5026199;28;20381;-82
2022/05/05 10:49:37;;;;;;;16.00;6.28;;;20.50;96.20;;;;;;5021882;28;20423;-84
2022/05/05 10:52:09;;;;;;;9.35;5.75;;;20.80;95.80;;;;;;5026944;28;20769;-83
2022/05/05 10:54:46;;;;;;;9.63;6.40;;;21.00;94.20;;;;;;5045815;28;20533;-82
2022/05/05 10:57:27;;;;;;;11.95;6.20;;;20.70;93.80;;;;;;5041509;28;20401;-81
2022/05/05 11:00:09;;;;;;;13.48;6.22;;;20.90;92.90;;;;;;5041176;28;20816;-82
2022/05/05 11:02:35;;;;;;;11.75;6.78;;;20.30;92.70;;;;;;5041585;28;20377;-84
2022/05/05 11:05:20;;;;;;;10.75;6.90;;;19.70;94.30;;;;;;5038416;28;20853;-82
2022/05/05 11:07:49;;;;;;;13.52;7.43;;;19.40;95.90;;;;;;5038907;28;20840;-82
2022/05/05 11:13:37;;;;;;;13.32;7.07;;;19.10;94.80;;;;;;5039128;28;20787;-83
2022/05/05 11:22:17;;;;;;;11.40;7.00;;;20.00;94.50;;;;;;5044024;28;20721;-83
2022/05/05 11:24:49;;;;;;;9.10;6.07;;;19.80;94.10;;;;;;5046738;28;20853;-83
2022/05/05 11:27:16;;;;;;;11.27;7.03;;;19.80;97.20;;;;;;5027167;28;20374;-84
2022/05/05 11:29:48;;;;;;;12.30;7.03;;;19.90;94.70;;;;;;5042993;28;20835;-84
2022/05/05 11:32:14;;;;;;;11.20;7.20;;;19.80;93.90;;;;;;5023505;28;20467;-84
2022/05/05 11:34:40;;;;;;;10.20;6.53;;;19.70;94.20;;;;;;5023667;28;20456;-82
2022/05/05 11:37:08;;;;;;;10.75;6.40;;;19.40;94.10;;;;;;5022262;28;20397;-81
2022/05/05 11:39:35;;;;;;;10.48;6.25;;;19.40;94.10;;;;;;5039739;28;20376;-83
2022/05/05 11:42:08;;;;;;;10.57;6.68;;;19.70;94.20;;;;;;5038513;28;20381;-86
2022/05/05 11:44:45;;;;;;;16.80;7.07;;;20.00;92.70;;;;;;5022745;28;20432;-83
2022/05/05 11:47:21;;;;;;;9.70;5.60;;;20.10;93.00;;;;;;5041723;28;20385;-82
2022/05/05 11:49:52;;;;;;;9.63;5.70;;;20.40;92.50;;;;;;5040766;28;20384;-86
2022/05/05 11:52:19;;;;;;;8.52;5.57;;;20.10;92.70;;;;;;5034670;28;20385;-82
2022/05/05 11:54:51;;;;;;;7.75;5.65;;;20.10;92.40;;;;;;5038070;28;20462;-84
2022/05/05 11:57:39;;;;;;;8.93;5.47;;;20.10;92.50;;;;;;5033922;28;20393;-83
2022/05/05 12:02:51;;;;;;;12.45;5.85;;;19.90;91.80;;;;;;5044935;28;20435;-88
2022/05/05 12:05:21;;;;;;;8.85;5.93;;;19.90;91.80;;;;;;5022694;28;20823;-79
2022/05/05 12:07:46;;;;;;;9.00;5.47;;;19.90;91.70;;;;;;5030325;28;20389;-81
2022/05/05 12:10:18;;;;;;;10.33;5.90;;;20.10;93.90;;;;;;5027240;28;20410;-81
2022/05/05 12:12:48;;;;;;;8.93;5.57;;;20.40;91.40;;;;;;5049853;28;20424;-83
2022/05/05 12:15:20;;;;;;;8.57;5.15;;;20.50;91.70;;;;;;5016914;28;20413;-82
2022/05/05 12:17:52;;;;;;;9.10;5.20;;;20.60;90.70;;;;;;5029328;28;20453;-84
2022/05/05 12:20:21;;;;;;;7.45;5.10;;;20.60;90.90;;;;;;5044994;28;20397;-82
2022/05/05 12:23:00;;;;;;;9.00;5.13;;;20.40;90.60;;;;;;5045914;28;20381;-81
2022/05/05 12:25:26;;;;;;;11.45;5.60;;;20.30;91.40;;;;;;5043701;28;20460;-83
2022/05/05 12:28:00;;;;;;;8.70;5.05;;;19.90;90.50;;;;;;5030546;28;20383;-83
2022/05/05 12:30:36;;;;;;;8.43;4.78;;;19.50;92.80;;;;;;5043672;28;20387;-82
2022/05/05 12:33:07;;;;;;;8.95;5.00;;;19.50;91.30;;;;;;5043114;28;21329;-82
2022/05/05 12:35:37;;;;;;;10.43;5.43;;;19.60;91.60;;;;;;5043132;28;20819;-83
2022/05/05 12:38:05;;;;;;;10.98;4.78;;;19.60;92.20;;;;;;5025158;28;20874;-83
2022/05/05 12:40:31;;;;;;;8.10;4.75;;;19.80;92.20;;;;;;5042564;28;20734;-83
2022/05/05 12:43:14;;;;;;;8.02;4.47;;;20.20;91.80;;;;;;5046775;28;20372;-84
2022/05/05 12:45:43;;;;;;;8.07;4.57;;;;;;;;;;5028914;28;20907;-84
2022/05/05 12:48:10;;;;;;;7.72;4.20;;;21.00;99.90;;;;;;5050292;28;20377;-83
2022/05/05 12:50:47;;;;;;;8.35;4.13;;;21.30;90.60;;;;;;5045768;28;20393;-82
2022/05/05 13:01:46;;;;;;;13.93;4.30;;;21.30;87.40;;;;;;5046329;28;20363;-82
2022/05/05 13:04:15;;;;;;;7.95;4.30;;;20.90;90.20;;;;;;5026003;28;20546;-81
2022/05/05 13:06:42;;;;;;;6.32;4.05;;;20.70;90.00;;;;;;5045404;28;20475;-84
2022/05/05 13:09:09;;;;;;;7.10;4.35;;;20.20;90.00;;;;;;5043853;28;20462;-81
2022/05/05 13:11:36;;;;;;;10.68;4.13;;;20.00;91.10;;;;;;5046927;28;20437;-81
2022/05/05 13:14:02;;;;;;;10.30;4.60;;;19.60;91.00;;;;;;5045925;28;20425;-82
2022/05/05 13:16:29;;;;;;;7.70;4.05;;;19.60;91.20;;;;;;5027311;28;20941;-82
2022/05/05 13:18:57;;;;;;;8.05;3.75;;;19.50;91.50;;;;;;5047311;28;20487;-81
2022/05/05 13:21:23;;;;;;;8.05;4.60;;;19.50;92.40;;;;;;5047403;28;20859;-81
2022/05/05 13:23:49;;;;;;;5.80;4.25;;;19.70;90.70;;;;;;5046104;28;20406;-84
2022/05/05 13:26:15;;;;;;;6.32;4.00;;;19.60;91.60;;;;;;5041150;28;20385;-82
2022/05/05 13:28:41;;;;;;;11.23;4.50;;;19.70;92.60;;;;;;5039601;28;20464;-85
2022/05/05 13:31:07;;;;;;;8.13;3.83;;;19.90;92.40;;;;;;5026514;28;20385;-84
2022/05/05 13:33:33;;;;;;;8.13;3.67;;;20.10;90.60;;;;;;5025337;28;20392;-83
2022/05/05 13:36:00;;;;;;;6.05;3.42;;;20.30;90.10;;;;;;5047652;28;20387;-81
2022/05/05 13:38:27;;;;;;;7.53;3.85;;;20.30;91.50;;;;;;5028605;28;20384;-80
2022/05/05 13:40:56;;;;;;;6.35;3.70;;;20.30;90.50;;;;;;5046542;28;20371;-81
2022/05/05 13:43:22;;;;;;;6.55;3.67;;;20.30;91.40;;;;;;5021525;28;20741;-83
2022/05/05 13:45:47;;;;;;;10.93;3.88;;;20.60;89.90;;;;;;5021941;28;20899;-81
2022/05/05 13:48:13;;;;;;;8.27;3.50;;;20.80;90.10;;;;;;5039176;28;20382;-82
2022/05/05 13:50:39;;;;;;;6.97;4.00;;;20.80;87.20;;;;;;5037763;28;20444;-83
2022/05/05 13:53:04;;;;;;;6.73;4.10;;;20.90;86.90;;;;;;5037354;28;20381;-85
2022/05/05 13:55:30;;;;;;;9.23;4.25;;;20.30;87.30;;;;;;5039811;28;20408;-83
2022/05/05 13:58:01;;;;;;;9.20;4.50;;;20.00;89.10;;;;;;5034334;28;20475;-82